Tula, Russia
Current Conditions -  °F | °C
As of 4:30 AM on Sunday 26 Oct 2014 (Local Time) from UUDD Reporting Station
Clear Clear  
Wind Chill: 13°   Ceiling: Unl
Heat Index: 21°   Visibility: 6mi
Dew Point: 14°   Wind: 7mph
Humidity: 74%   Direction: 200°SSW
Pressure: 30.59"   Gusts: NA
Location:  54.2°N, 37.61°E
Report Text: UUDD 260130Z 20003MPS 170V230 CAVOK M06/M10 Q1036 14010095NOSIG
Loading
Personal Weather Stations






























Interactive Weather Map
Tropical Storm Tracking
New forecast layout! Learn more

10-Day Weather Forecast

Advertisements
Track Severe Weather on mobile